createdAt,value
2022-11-06T00:10:07.539Z,70.6
2022-11-06T00:25:19.735Z,70.9
2022-11-06T00:40:29.492Z,71.6
2022-11-06T00:55:39.365Z,72.3
2022-11-06T01:10:48.551Z,73.5
2022-11-06T01:25:57.808Z,74
2022-11-06T01:41:07.190Z,74.2
2022-11-06T01:56:19.249Z,74.3
2022-11-06T02:11:29.046Z,74.3
2022-11-06T02:26:38.876Z,74.3
2022-11-06T02:41:48.658Z,74.3
2022-11-06T02:57:00.777Z,74.4
2022-11-06T03:12:10.478Z,74.5
2022-11-06T03:27:19.560Z,74.7
2022-11-06T03:42:29.230Z,74.9
2022-11-06T03:57:42.130Z,75.1
2022-11-06T04:12:54.234Z,75.1
2022-11-06T04:28:03.793Z,75.1
2022-11-06T04:43:16.010Z,75.1
2022-11-06T04:58:25.461Z,75.1
2022-11-06T05:13:35.465Z,75.1
2022-11-06T05:28:44.608Z,75.2
2022-11-06T05:43:54.602Z,75.2
2022-11-06T05:59:06.141Z,75.3
2022-11-06T06:14:15.647Z,75.4
2022-11-06T06:29:25.367Z,75.4
2022-11-06T06:44:37.814Z,75.4
2022-11-06T06:59:47.759Z,75.6
2022-11-06T07:14:57.388Z,74.9
2022-11-06T07:30:07.646Z,75.3
2022-11-06T07:45:17.716Z,75.2
2022-11-06T08:00:28.028Z,75.3
2022-11-06T08:15:38.270Z,75.2
2022-11-06T08:30:50.880Z,75
2022-11-06T08:46:01.103Z,75.1
2022-11-06T09:01:10.838Z,75.1
2022-11-06T09:16:20.843Z,74.9
2022-11-06T09:31:31.012Z,74.7
2022-11-06T09:46:54.780Z,74.3
2022-11-06T10:02:05.779Z,74.5
2022-11-06T10:17:14.967Z,74.4
2022-11-06T10:32:24.735Z,74.2
2022-11-06T10:47:34.144Z,74
2022-11-06T11:02:46.989Z,73.7
2022-11-06T11:18:00.897Z,73.4
2022-11-06T11:33:10.087Z,73.1
2022-11-06T11:48:21.387Z,70.7
2022-11-06T12:03:31.677Z,69
2022-11-06T12:18:41.752Z,68.9
2022-11-06T12:34:17.974Z,69.3
2022-11-06T12:49:27.096Z,70.3
2022-11-06T13:04:36.599Z,69.6
2022-11-06T13:19:47.137Z,64.9
2022-11-06T13:34:57.845Z,63.6
2022-11-06T13:50:04.939Z,69
2022-11-06T14:05:13.723Z,70.6
2022-11-06T14:20:22.858Z,71
2022-11-06T14:35:32.454Z,71.1
2022-11-06T14:50:42.264Z,71.2
2022-11-06T15:05:53.545Z,71.4
2022-11-06T15:21:02.470Z,71.5
2022-11-06T15:36:11.875Z,71.8
2022-11-06T15:51:21.390Z,71.9
2022-11-06T16:06:31.573Z,72.1
2022-11-06T16:21:41.474Z,72.2
2022-11-06T16:36:50.994Z,72.3
2022-11-06T16:52:00.707Z,71.9
2022-11-06T17:07:11.063Z,72.2
2022-11-06T17:23:20.011Z,69.8
2022-11-06T17:38:33.329Z,70.9
2022-11-06T17:53:42.536Z,71
2022-11-06T18:08:51.750Z,71
2022-11-06T18:24:01.408Z,70.9
2022-11-06T18:39:10.829Z,70.6
2022-11-06T18:54:20.153Z,70.2
2022-11-06T19:09:29.757Z,69.7
2022-11-06T19:24:39.444Z,69.6
2022-11-06T19:39:49.460Z,69.5
2022-11-06T19:55:28.367Z,69.6
2022-11-06T20:10:38.302Z,70.5
2022-11-06T20:25:47.750Z,71.1
2022-11-06T20:40:57.466Z,71.4
2022-11-06T20:56:07.007Z,71.6
2022-11-06T21:11:16.509Z,71.4
2022-11-06T21:26:26.627Z,72.1
2022-11-06T21:41:36.577Z,71.8
2022-11-06T21:56:47.840Z,72.1
2022-11-06T22:11:59.625Z,72.2
2022-11-06T22:27:09.477Z,72.2
2022-11-06T22:42:19.757Z,72.3
2022-11-06T22:57:30.254Z,72.3
2022-11-06T23:12:39.590Z,72.3
2022-11-06T23:27:50.717Z,72.4
2022-11-06T23:43:00.099Z,72.5
2022-11-06T23:58:09.324Z,72.6
